KGGI

Grinnell Regional Airport

Grinnell, Iowa, USA
METAR KGGI 141255Z AUTO 34009KT 1/2SM FZFG OVC002 M03/M03 A3024 RMK AO2 T10301031
Observed Flight Rules
Dec-14 @ 12:55 UTC (12 minutes ago) Instrument Flight Rules
Wind Visibility Clouds Conditions
340° at 9 knots 1/2 miles
  • Overcast at 200' AGL
  • Freezing
  • Fog
Temperatures Readings
Current -3°C / 27°F
Dewpoint -3°C / 27°F
Humidity 100%
Altimeter 30.24" Hg
Pressure 1024 hPa
Elevation 307
METAR KGGI 141255Z AUTO 34009KT 1/2SM FZFG OVC002 M03/M03 A3024 RMK AO2 T10301031
Observed Flight Rules
Dec-14 @ 12:55 UTC
(12 minutes ago)
LIFR
Wind Visibility
340° at 9 knots 1/2 miles
Clouds
  • Overcast at 200' AGL
Conditions
  • Freezing
  • Fog
Temperature Dewpoint
-3°C / 27°F -3°C / 27°F
Humidity Altimeter Pressure
100% 30.24" Hg 1024 hPa